Time;durP1;ratioP1;P1;durP2;ratioP2;P2;SDS_P1;SDS_P2;PMS_P1;PMS_P2;Temp;Humidity;BMP_temperature;BMP_pressure;BME280_temperature;BME280_humidity;BME280_pressure;Samples;Min_cycle;Max_cycle;Signal;HPM_P1;HPM_P2
2021/04/11 00:00:56;;;;;;;3.03;1.90;;;4.10;99.90;;;;;;5022516;28;20206;-53
2021/04/11 00:03:25;;;;;;;5.37;2.33;;;4.10;99.90;;;;;;5018667;28;20409;-53
2021/04/11 00:05:54;;;;;;;6.27;2.90;;;4.10;99.90;;;;;;5022693;28;20207;-55
2021/04/11 00:08:20;;;;;;;5.13;3.13;;;4.10;99.90;;;;;;5018893;28;20227;-55
2021/04/11 00:10:49;;;;;;;5.03;2.27;;;4.10;99.90;;;;;;5022688;28;20231;-55
2021/04/11 00:13:18;;;;;;;6.70;2.90;;;4.10;99.90;;;;;;5010330;28;20195;-58
2021/04/11 00:15:44;;;;;;;4.80;2.20;;;4.10;99.90;;;;;;5016289;28;20200;-55
2021/04/11 00:18:10;;;;;;;7.43;2.97;;;4.10;99.90;;;;;;5019568;28;20211;-57
2021/04/11 00:20:36;;;;;;;4.00;2.33;;;4.10;99.90;;;;;;5019868;28;20327;-57
2021/04/11 00:23:04;;;;;;;8.97;3.40;;;4.10;99.90;;;;;;5022389;28;20573;-58
2021/04/11 00:25:34;;;;;;;7.07;3.13;;;4.10;99.90;;;;;;5019043;28;20573;-52
2021/04/11 00:28:00;;;;;;;8.93;3.50;;;4.20;99.90;;;;;;5022607;28;20196;-55
2021/04/11 00:30:27;;;;;;;7.30;2.97;;;4.20;99.90;;;;;;5010220;28;20223;-57
2021/04/11 00:32:55;;;;;;;7.57;3.77;;;4.20;99.90;;;;;;5025328;28;20245;-54
2021/04/11 00:35:22;;;;;;;7.97;3.10;;;4.20;99.90;;;;;;5018249;28;20207;-56
2021/04/11 00:37:48;;;;;;;6.97;4.07;;;4.20;99.90;;;;;;5011646;28;20208;-52
2021/04/11 00:40:20;;;;;;;7.40;3.13;;;4.30;99.90;;;;;;5021316;28;20227;-57
2021/04/11 00:42:51;;;;;;;7.13;3.63;;;4.30;99.90;;;;;;5014514;28;20670;-51
2021/04/11 00:45:25;;;;;;;5.97;3.87;;;4.30;99.90;;;;;;5009359;28;20704;-53
2021/04/11 00:47:52;;;;;;;8.77;4.17;;;4.30;99.90;;;;;;5015631;28;20223;-52
2021/04/11 00:50:19;;;;;;;7.07;5.17;;;4.40;99.90;;;;;;5018158;28;20306;-55
2021/04/11 00:52:46;;;;;;;10.10;5.00;;;4.40;99.90;;;;;;4996781;28;20684;-56
2021/04/11 00:55:14;;;;;;;11.50;5.17;;;4.50;99.90;;;;;;5006509;28;20211;-55
2021/04/11 00:57:44;;;;;;;8.83;5.50;;;4.50;99.90;;;;;;5002477;28;20224;-55
2021/04/11 01:00:12;;;;;;;10.97;6.50;;;4.60;99.90;;;;;;5012141;28;20216;-50
2021/04/11 01:02:40;;;;;;;11.13;6.10;;;4.60;99.90;;;;;;5007574;28;20200;-54
2021/04/11 01:05:13;;;;;;;15.60;7.00;;;4.70;99.90;;;;;;5009158;28;20691;-51
2021/04/11 01:07:40;;;;;;;14.60;6.57;;;4.70;99.90;;;;;;5022975;28;20231;-55
2021/04/11 01:10:09;;;;;;;11.83;6.57;;;4.70;99.90;;;;;;5017681;28;20219;-56
2021/04/11 01:12:35;;;;;;;16.53;7.33;;;4.80;99.90;;;;;;5022681;28;20848;-57
2021/04/11 01:15:05;;;;;;;13.40;7.30;;;4.80;99.90;;;;;;5022372;28;20427;-57
2021/04/11 01:17:32;;;;;;;14.50;7.60;;;4.90;99.90;;;;;;4991715;28;20630;-53
2021/04/11 01:20:00;;;;;;;13.20;8.23;;;4.90;99.90;;;;;;5022806;28;20483;-53
2021/04/11 01:22:42;;;;;;;11.20;8.27;;;4.90;99.90;;;;;;5006144;28;20278;-54
2021/04/11 01:25:15;;;;;;;16.03;8.77;;;5.00;99.90;;;;;;5007535;28;20669;-52
2021/04/11 01:27:43;;;;;;;15.50;9.20;;;5.00;99.90;;;;;;5003336;28;20218;-54
2021/04/11 01:30:13;;;;;;;14.57;9.50;;;5.00;99.90;;;;;;5025033;28;20227;-52
2021/04/11 01:32:41;;;;;;;17.47;9.33;;;5.10;99.90;;;;;;4990737;28;20208;-57
2021/04/11 01:35:09;;;;;;;17.07;10.50;;;5.10;99.90;;;;;;5024944;28;20452;-53
2021/04/11 01:37:37;;;;;;;19.37;10.37;;;5.10;99.90;;;;;;5005185;28;20784;-57
2021/04/11 01:40:05;;;;;;;18.80;10.80;;;5.10;99.90;;;;;;5023521;28;20315;-51
2021/04/11 01:42:33;;;;;;;20.17;10.63;;;5.20;99.90;;;;;;5005145;28;20235;-55
2021/04/11 01:44:59;;;;;;;20.53;11.20;;;5.20;99.90;;;;;;5019233;28;20573;-55
2021/04/11 01:47:27;;;;;;;16.40;10.07;;;5.30;99.90;;;;;;4991095;28;20728;-53
2021/04/11 01:49:53;;;;;;;24.30;11.40;;;5.30;99.90;;;;;;5024764;28;20322;-53
2021/04/11 01:52:23;;;;;;;22.43;13.17;;;5.30;99.90;;;;;;5020725;28;20295;-55
2021/04/11 01:54:52;;;;;;;23.73;13.07;;;5.40;99.90;;;;;;5006946;28;20227;-53
2021/04/11 01:57:23;;;;;;;23.47;12.77;;;5.40;99.90;;;;;;5003212;28;20333;-57
2021/04/11 01:59:59;;;;;;;24.13;12.37;;;5.40;99.90;;;;;;5025550;28;20212;-56
2021/04/11 02:02:26;;;;;;;22.67;13.73;;;5.50;99.90;;;;;;4992397;28;21211;-49
2021/04/11 02:04:52;;;;;;;22.57;13.07;;;5.50;99.90;;;;;;5024882;28;20188;-56
2021/04/11 02:07:19;;;;;;;21.87;12.50;;;5.50;99.90;;;;;;5003583;28;20253;-56
2021/04/11 02:09:54;;;;;;;29.40;13.40;;;5.50;99.90;;;;;;5025181;28;20278;-58
2021/04/11 02:12:31;;;;;;;23.10;13.30;;;5.60;99.90;;;;;;5024642;28;20250;-57
2021/04/11 02:15:10;;;;;;;24.67;14.27;;;5.60;99.90;;;;;;4999621;28;20672;-57
2021/04/11 02:17:38;;;;;;;22.17;13.30;;;5.60;99.90;;;;;;5024919;28;20229;-52
2021/04/11 02:20:07;;;;;;;23.07;14.07;;;5.70;99.90;;;;;;4991046;28;20224;-56
2021/04/11 02:22:40;;;;;;;22.17;13.67;;;5.70;99.90;;;;;;5025267;28;20211;-53
2021/04/11 02:25:14;;;;;;;20.30;13.13;;;5.70;99.90;;;;;;5004583;28;20200;-57
2021/04/11 02:27:41;;;;;;;21.33;13.77;;;5.70;99.90;;;;;;5025279;28;20203;-51
2021/04/11 02:30:13;;;;;;;24.83;14.33;;;5.80;99.90;;;;;;5003745;28;20318;-55
2021/04/11 02:32:39;;;;;;;22.23;13.13;;;5.80;99.90;;;;;;5025159;28;20273;-53
2021/04/11 02:35:08;;;;;;;21.77;13.27;;;5.80;99.90;;;;;;5009632;28;20231;-57
2021/04/11 02:37:37;;;;;;;20.77;13.93;;;5.90;99.90;;;;;;5023858;28;20216;-58
2021/04/11 02:40:07;;;;;;;21.50;12.53;;;5.90;99.90;;;;;;5022027;28;20239;-52
2021/04/11 02:42:35;;;;;;;21.33;12.70;;;5.90;99.90;;;;;;5004135;28;20725;-56
2021/04/11 02:45:08;;;;;;;20.97;13.13;;;5.90;99.90;;;;;;5022294;28;20216;-55
2021/04/11 02:47:41;;;;;;;22.63;14.30;;;6.00;99.90;;;;;;5006225;28;20208;-56
2021/04/11 02:50:09;;;;;;;22.00;13.00;;;6.00;99.90;;;;;;4988463;28;20636;-55
2021/04/11 02:52:41;;;;;;;25.80;13.47;;;6.00;99.90;;;;;;5010315;28;20228;-56
2021/04/11 02:55:11;;;;;;;24.07;13.57;;;6.00;99.90;;;;;;5014909;28;20218;-56
2021/04/11 02:57:38;;;;;;;23.20;12.97;;;6.00;99.90;;;;;;5023852;28;20226;-54
2021/04/11 03:00:09;;;;;;;23.33;14.10;;;6.00;99.90;;;;;;5003200;28;20239;-55
2021/04/11 03:02:38;;;;;;;22.27;13.40;;;6.00;99.90;;;;;;5005736;28;20538;-56
2021/04/11 03:05:11;;;;;;;18.07;12.57;;;6.00;99.90;;;;;;5011638;28;20203;-56
2021/04/11 03:07:44;;;;;;;21.90;12.77;;;6.10;99.90;;;;;;5024748;28;20713;-54
2021/04/11 03:10:18;;;;;;;20.87;12.83;;;6.10;99.90;;;;;;5001349;28;20226;-56
2021/04/11 03:12:48;;;;;;;18.30;12.80;;;6.10;99.90;;;;;;5006072;28;20244;-50
2021/04/11 03:15:16;;;;;;;26.00;13.47;;;6.10;99.90;;;;;;5015096;28;20488;-56
2021/04/11 03:17:44;;;;;;;20.27;12.33;;;6.10;99.90;;;;;;5004226;28;20227;-54
2021/04/11 03:20:17;;;;;;;20.47;13.37;;;6.10;99.90;;;;;;5005866;28;20254;-57
2021/04/11 03:22:52;;;;;;;21.13;14.23;;;6.20;99.90;;;;;;5008334;28;20195;-54
2021/04/11 03:25:19;;;;;;;21.90;13.87;;;6.20;99.90;;;;;;5006051;28;20287;-50
2021/04/11 03:27:50;;;;;;;25.13;13.67;;;6.20;99.90;;;;;;5023071;28;20246;-56
2021/04/11 03:30:21;;;;;;;21.53;13.73;;;6.20;99.90;;;;;;5000664;28;20250;-54
2021/04/11 03:32:51;;;;;;;25.30;14.50;;;6.20;99.90;;;;;;5005086;28;20203;-54
2021/04/11 03:35:25;;;;;;;23.13;14.10;;;6.30;99.90;;;;;;4995852;28;20282;-54
2021/04/11 03:37:55;;;;;;;20.70;13.77;;;6.30;99.90;;;;;;5010251;28;20243;-50
2021/04/11 03:40:26;;;;;;;24.40;14.43;;;6.30;99.90;;;;;;5019210;28;20856;-52
2021/04/11 03:43:00;;;;;;;21.97;14.10;;;6.30;99.90;;;;;;5023261;28;20216;-51
2021/04/11 03:45:30;;;;;;;22.63;14.90;;;6.30;99.90;;;;;;5020545;28;20972;-52
2021/04/11 03:48:04;;;;;;;24.30;14.87;;;6.30;99.90;;;;;;5001251;28;20184;-51
2021/04/11 03:50:35;;;;;;;22.93;14.27;;;6.30;99.90;;;;;;5004308;28;20222;-55
2021/04/11 03:53:15;;;;;;;26.23;15.37;;;6.40;99.90;;;;;;5009051;28;20340;-54
2021/04/11 03:55:48;;;;;;;27.57;16.33;;;6.40;99.90;;;;;;5002009;28;20200;-57
2021/04/11 03:58:26;;;;;;;25.53;15.63;;;6.40;99.90;;;;;;5022983;28;20323;-52
2021/04/11 04:00:56;;;;;;;24.47;16.43;;;6.40;99.90;;;;;;4991485;28;20262;-52
2021/04/11 04:03:29;;;;;;;26.47;15.80;;;6.40;99.90;;;;;;5019339;28;20195;-57
2021/04/11 04:06:02;;;;;;;23.03;15.10;;;6.50;99.90;;;;;;5017416;28;20200;-50
2021/04/11 04:08:28;;;;;;;24.90;15.50;;;6.50;99.90;;;;;;5006332;28;20206;-53
2021/04/11 04:11:08;;;;;;;26.77;16.33;;;6.50;99.90;;;;;;5006831;28;20192;-52
2021/04/11 04:13:45;;;;;;;24.53;15.77;;;6.50;99.90;;;;;;4999586;28;20307;-58
2021/04/11 04:16:16;;;;;;;25.00;16.77;;;6.50;99.90;;;;;;5004029;28;20210;-55
2021/04/11 04:19:03;;;;;;;24.83;16.40;;;6.50;99.90;;;;;;5004191;28;20268;-55
2021/04/11 04:21:56;;;;;;;27.30;16.73;;;6.60;99.90;;;;;;5013092;28;20208;-52
2021/04/11 04:24:40;;;;;;;24.17;16.83;;;6.60;99.90;;;;;;4990626;28;20306;-54
2021/04/11 04:27:29;;;;;;;29.10;18.30;;;6.60;99.90;;;;;;5009945;28;20215;-49
2021/04/11 04:30:10;;;;;;;31.97;18.57;;;6.60;99.90;;;;;;5004026;28;20711;-51
2021/04/11 04:33:01;;;;;;;27.47;17.80;;;6.60;99.90;;;;;;5019683;28;20197;-56
2021/04/11 04:35:37;;;;;;;28.03;18.33;;;6.60;99.90;;;;;;5004848;28;20205;-53
2021/04/11 04:38:17;;;;;;;32.50;19.23;;;6.60;99.90;;;;;;4986109;28;20315;-56
2021/04/11 04:40:56;;;;;;;32.13;17.23;;;6.60;99.90;;;;;;5009523;28;20228;-51
2021/04/11 04:43:30;;;;;;;28.73;18.67;;;6.70;99.90;;;;;;5000577;28;20242;-56
2021/04/11 04:46:06;;;;;;;31.33;20.03;;;6.70;99.90;;;;;;5006515;28;20207;-54
2021/04/11 04:48:37;;;;;;;30.60;19.77;;;6.70;99.90;;;;;;5003880;28;20354;-51
2021/04/11 04:51:15;;;;;;;29.20;18.53;;;6.70;99.90;;;;;;5022991;28;20219;-53
2021/04/11 04:53:54;;;;;;;30.87;20.10;;;6.80;99.90;;;;;;4987214;28;20243;-53
2021/04/11 04:56:31;;;;;;;34.07;20.33;;;6.80;99.90;;;;;;5020025;28;20269;-54
2021/04/11 04:59:04;;;;;;;32.10;19.27;;;6.80;99.90;;;;;;5024214;28;20263;-49
2021/04/11 05:01:35;;;;;;;31.43;19.67;;;6.80;99.90;;;;;;5014266;28;20705;-50
2021/04/11 05:04:13;;;;;;;32.50;20.47;;;6.80;99.90;;;;;;5003760;28;20728;-49
2021/04/11 05:06:43;;;;;;;31.83;21.10;;;6.90;99.90;;;;;;5020807;28;20222;-50
2021/04/11 05:09:47;;;;;;;32.87;20.43;;;6.90;99.90;;;;;;4992435;28;20234;-50
2021/04/11 05:12:48;;;;;;;34.93;21.37;;;6.90;99.90;;;;;;5020882;28;20789;-49
2021/04/11 05:15:20;;;;;;;35.80;22.13;;;6.90;99.90;;;;;;5019578;28;20211;-51
2021/04/11 05:17:58;;;;;;;34.10;22.13;;;7.00;99.90;;;;;;4997840;28;20212;-51
2021/04/11 05:20:27;;;;;;;30.57;20.77;;;7.00;99.90;;;;;;5004519;28;20274;-57
2021/04/11 05:23:00;;;;;;;32.90;21.53;;;7.00;99.90;;;;;;5020434;28;20200;-56
2021/04/11 05:25:37;;;;;;;33.07;22.03;;;7.00;99.90;;;;;;4984014;28;20957;-55
2021/04/11 05:28:09;;;;;;;34.43;21.83;;;7.00;99.90;;;;;;5022382;28;20270;-55
2021/04/11 05:30:42;;;;;;;32.80;22.13;;;7.10;99.90;;;;;;5018681;28;20285;-52
2021/04/11 05:33:11;;;;;;;34.10;23.13;;;7.10;99.90;;;;;;5012440;28;20197;-54
2021/04/11 05:35:37;;;;;;;31.60;21.17;;;7.10;99.90;;;;;;5020838;28;20681;-52
2021/04/11 05:38:24;;;;;;;37.00;22.83;;;7.10;99.90;;;;;;5022507;28;20711;-55
2021/04/11 05:40:56;;;;;;;33.93;22.80;;;7.20;99.90;;;;;;4988053;28;20269;-51
2021/04/11 05:43:29;;;;;;;33.70;21.80;;;7.20;99.90;;;;;;5025977;28;20493;-52
2021/04/11 05:46:01;;;;;;;32.93;21.47;;;7.20;99.90;;;;;;5021010;28;20252;-54
2021/04/11 05:48:37;;;;;;;36.73;23.53;;;7.20;99.90;;;;;;5006493;28;20413;-52
2021/04/11 05:51:07;;;;;;;31.73;22.83;;;7.20;99.90;;;;;;5020836;28;20261;-49
2021/04/11 05:53:36;;;;;;;36.57;22.80;;;7.30;99.90;;;;;;5017087;28;20208;-57
2021/04/11 05:56:07;;;;;;;34.30;24.13;;;7.30;99.90;;;;;;5004619;28;20524;-49
2021/04/11 05:58:38;;;;;;;34.10;23.50;;;7.30;99.90;;;;;;5031841;28;20314;-54
2021/04/11 06:01:09;;;;;;;34.93;23.27;;;7.30;99.90;;;;;;5016686;28;20203;-55
2021/04/11 06:03:41;;;;;;;38.10;24.97;;;7.30;99.90;;;;;;5019939;28;20210;-54
2021/04/11 06:06:14;;;;;;;39.67;25.33;;;7.40;99.90;;;;;;5022954;28;20271;-53
2021/04/11 06:08:50;;;;;;;38.93;24.60;;;7.40;99.90;;;;;;4997298;28;20210;-54
2021/04/11 06:11:23;;;;;;;40.50;25.27;;;7.40;99.90;;;;;;5023987;28;20301;-56
2021/04/11 06:13:53;;;;;;;37.37;24.67;;;7.40;99.90;;;;;;5006269;28;20208;-52
2021/04/11 06:16:21;;;;;;;37.23;24.57;;;7.40;99.90;;;;;;5023069;28;20217;-51
2021/04/11 06:18:51;;;;;;;41.17;25.70;;;7.50;99.90;;;;;;5013146;28;20301;-54
2021/04/11 06:21:26;;;;;;;39.07;26.20;;;7.50;99.90;;;;;;5025873;28;20700;-49
2021/04/11 06:23:59;;;;;;;42.30;26.37;;;7.50;99.90;;;;;;5012290;28;20204;-56
2021/04/11 06:26:35;;;;;;;37.57;26.93;;;7.60;99.90;;;;;;5018249;28;20208;-52
2021/04/11 06:29:07;;;;;;;38.73;26.07;;;7.60;99.90;;;;;;5015202;28;20605;-52
2021/04/11 06:31:37;;;;;;;40.33;26.13;;;7.60;99.90;;;;;;5022936;28;20218;-56
2021/04/11 06:34:07;;;;;;;38.20;26.13;;;7.60;99.90;;;;;;5015679;28;20212;-51
2021/04/11 06:36:38;;;;;;;40.57;27.50;;;7.70;99.90;;;;;;5022872;28;20204;-55
2021/04/11 06:39:09;;;;;;;40.57;27.10;;;7.70;99.90;;;;;;5021377;28;20304;-51
2021/04/11 06:42:03;;;;;;;41.97;27.77;;;7.70;99.90;;;;;;5009629;28;20620;-56
2021/04/11 06:44:49;;;;;;;43.97;28.23;;;7.80;99.90;;;;;;5002696;28;20215;-52
2021/04/11 06:47:42;;;;;;;44.53;28.00;;;7.80;99.90;;;;;;5020164;28;20211;-56
2021/04/11 06:50:20;;;;;;;41.57;27.60;;;7.90;99.90;;;;;;5013642;28;20866;-53
2021/04/11 06:53:13;;;;;;;38.63;27.43;;;7.90;99.90;;;;;;5024703;28;20317;-54
2021/04/11 06:55:55;;;;;;;38.47;25.27;;;7.90;99.90;;;;;;5020006;28;20200;-59
2021/04/11 06:58:29;;;;;;;37.30;24.83;;;7.90;99.90;;;;;;5004801;28;20602;-56
2021/04/11 07:01:23;;;;;;;36.53;25.17;;;7.90;99.90;;;;;;5013736;28;20540;-54
2021/04/11 07:04:34;;;;;;;39.73;25.77;;;7.90;99.90;;;;;;5011824;28;20220;-54
2021/04/11 07:07:40;;;;;;;37.00;24.77;;;7.90;99.90;;;;;;5015692;28;20231;-53
2021/04/11 07:10:25;;;;;;;31.07;22.57;;;7.90;99.90;;;;;;5022215;28;20265;-54
2021/04/11 07:13:46;;;;;;;35.07;23.70;;;7.90;99.90;;;;;;5007694;28;20906;-57
2021/04/11 07:16:42;;;;;;;35.30;22.13;;;8.00;99.90;;;;;;4968963;28;20208;-54
2021/04/11 07:19:43;;;;;;;31.20;21.60;;;8.00;99.90;;;;;;5018067;28;20227;-54
2021/04/11 07:22:32;;;;;;;31.27;21.53;;;8.00;99.90;;;;;;4955059;28;20224;-54
2021/04/11 07:25:19;;;;;;;29.73;21.33;;;8.00;99.90;;;;;;5020570;28;20850;-54
2021/04/11 07:28:02;;;;;;;32.40;22.47;;;8.00;99.90;;;;;;5012025;28;20562;-54
2021/04/11 07:30:40;;;;;;;31.93;23.03;;;8.10;99.90;;;;;;5005918;28;20241;-54
2021/04/11 07:33:43;;;;;;;30.63;21.37;;;8.10;99.90;;;;;;5021522;28;20195;-57
2021/04/11 07:36:33;;;;;;;29.33;21.13;;;8.20;99.90;;;;;;5011223;28;20471;-52
2021/04/11 07:39:22;;;;;;;31.83;22.27;;;8.20;99.90;;;;;;5019801;28;20376;-49
2021/04/11 07:42:18;;;;;;;34.17;23.00;;;8.30;99.90;;;;;;5013591;28;20610;-58
2021/04/11 07:45:07;;;;;;;31.90;22.43;;;8.30;99.90;;;;;;4983758;28;20225;-57
2021/04/11 07:48:01;;;;;;;34.00;23.47;;;8.30;99.90;;;;;;5020525;28;20204;-56
2021/04/11 07:50:51;;;;;;;36.73;24.57;;;8.30;99.90;;;;;;5006642;28;20258;-50
2021/04/11 07:53:37;;;;;;;37.70;25.13;;;8.30;99.90;;;;;;5017215;28;20575;-51
2021/04/11 07:56:14;;;;;;;40.00;26.13;;;8.40;99.90;;;;;;5020439;28;20192;-52
2021/04/11 07:59:07;;;;;;;39.00;26.13;;;8.40;99.90;;;;;;5017213;28;20228;-54
2021/04/11 08:02:03;;;;;;;37.97;25.50;;;8.50;99.90;;;;;;5007532;28;20722;-54
2021/04/11 08:04:45;;;;;;;39.17;25.93;;;8.50;99.90;;;;;;5005949;28;20219;-53
2021/04/11 08:07:43;;;;;;;39.57;27.53;;;8.50;99.90;;;;;;5016663;28;20636;-55
2021/04/11 08:10:22;;;;;;;38.60;25.43;;;8.60;99.90;;;;;;5021503;28;20253;-54
2021/04/11 08:13:04;;;;;;;39.57;27.33;;;8.60;99.90;;;;;;5000619;28;20246;-56
2021/04/11 08:15:36;;;;;;;38.70;25.90;;;8.60;99.90;;;;;;5000088;28;20196;-54
2021/04/11 08:18:25;;;;;;;41.83;26.70;;;8.70;99.90;;;;;;5019268;28;20426;-54
2021/04/11 08:21:17;;;;;;;41.50;26.33;;;8.80;99.90;;;;;;5017941;28;20369;-51
2021/04/11 08:24:23;;;;;;;39.20;26.40;;;8.80;99.90;;;;;;5009698;28;20208;-55
2021/04/11 08:27:41;;;;;;;39.07;26.33;;;8.90;99.90;;;;;;4937717;29;20221;-53
2021/04/11 08:30:21;;;;;;;41.37;27.73;;;8.90;99.90;;;;;;4919018;28;20769;-52
2021/04/11 08:33:37;;;;;;;38.60;26.73;;;9.00;99.90;;;;;;5012677;28;20195;-51
2021/04/11 08:36:39;;;;;;;41.33;28.03;;;9.10;99.90;;;;;;4920344;29;20496;-55
2021/04/11 08:39:34;;;;;;;35.73;25.03;;;9.20;99.90;;;;;;4979655;28;20294;-52
2021/04/11 08:42:09;;;;;;;38.10;26.43;;;9.30;99.90;;;;;;5009922;28;20207;-50
2021/04/11 08:44:56;;;;;;;36.47;25.10;;;9.30;99.90;;;;;;5021674;28;20619;-50
2021/04/11 08:47:34;;;;;;;40.70;26.77;;;9.50;99.90;;;;;;5005967;28;20215;-51
2021/04/11 08:50:04;;;;;;;39.97;26.67;;;9.60;99.90;;;;;;5015299;28;20216;-56
2021/04/11 08:52:39;;;;;;;38.33;26.07;;;9.70;99.90;;;;;;5018054;28;20199;-52
2021/04/11 08:55:14;;;;;;;37.97;25.03;;;9.90;99.90;;;;;;5009870;28;20210;-57
2021/04/11 08:58:03;;;;;;;32.60;23.27;;;10.00;99.90;;;;;;5021694;28;20726;-52
2021/04/11 09:00:38;;;;;;;37.27;26.17;;;10.10;99.90;;;;;;5017211;28;20452;-54
2021/04/11 09:03:17;;;;;;;37.10;25.80;;;10.20;99.90;;;;;;5006947;28;20520;-53
2021/04/11 09:05:55;;;;;;;35.63;23.90;;;10.40;99.90;;;;;;5021934;28;20208;-54
2021/04/11 09:08:29;;;;;;;31.60;23.47;;;10.50;99.90;;;;;;5018981;28;20204;-52
2021/04/11 09:11:08;;;;;;;30.97;22.67;;;10.50;99.90;;;;;;5015029;28;20213;-55
2021/04/11 09:13:50;;;;;;;29.83;22.23;;;10.40;99.90;;;;;;5022015;28;20275;-54
2021/04/11 09:16:26;;;;;;;30.80;21.70;;;10.40;99.90;;;;;;5021419;28;20273;-51
2021/04/11 09:19:01;;;;;;;26.83;20.57;;;10.40;99.90;;;;;;5012747;28;20219;-55
2021/04/11 09:22:04;;;;;;;31.57;22.50;;;10.30;99.90;;;;;;5023531;28;20320;-54
2021/04/11 09:24:35;;;;;;;24.77;19.60;;;10.30;99.90;;;;;;5019024;28;20218;-55
2021/04/11 09:27:41;;;;;;;27.80;18.90;;;10.30;99.90;;;;;;5022944;28;20204;-54
2021/04/11 09:30:22;;;;;;;28.93;19.57;;;10.30;99.90;;;;;;5013240;28;20278;-52
2021/04/11 09:33:14;;;;;;;26.70;19.17;;;10.40;99.90;;;;;;5023201;28;20286;-55
2021/04/11 09:35:51;;;;;;;21.70;16.87;;;10.40;99.90;;;;;;5028716;28;20661;-53
2021/04/11 09:38:45;;;;;;;23.93;17.70;;;10.40;99.90;;;;;;5016430;28;20226;-54
2021/04/11 09:41:33;;;;;;;16.20;13.20;;;10.40;99.90;;;;;;5011803;28;20208;-54
2021/04/11 09:44:19;;;;;;;14.37;11.93;;;10.50;99.90;;;;;;5013629;28;20684;-55
2021/04/11 09:47:09;;;;;;;14.23;12.20;;;10.60;99.90;;;;;;5023940;28;20218;-54
2021/04/11 09:49:49;;;;;;;13.43;11.23;;;10.70;99.90;;;;;;5007294;28;20220;-52
2021/04/11 09:52:59;;;;;;;13.30;9.83;;;10.80;99.90;;;;;;5018130;28;20208;-53
2021/04/11 09:55:27;;;;;;;10.43;9.33;;;10.90;99.90;;;;;;5019086;28;20295;-50
2021/04/11 09:58:26;;;;;;;9.13;8.27;;;11.00;99.90;;;;;;5017631;28;20262;-54
2021/04/11 10:01:00;;;;;;;8.83;7.37;;;11.00;99.90;;;;;;5003671;28;20250;-58
2021/04/11 10:03:56;;;;;;;8.57;7.77;;;10.90;99.90;;;;;;5029970;28;20198;-49
2021/04/11 10:06:46;;;;;;;7.37;6.67;;;10.90;99.90;;;;;;4993493;28;20230;-54
2021/04/11 10:09:40;;;;;;;6.77;6.10;;;10.90;99.90;;;;;;5015209;28;20298;-51
2021/04/11 10:12:40;;;;;;;7.97;7.13;;;10.80;99.90;;;;;;5019704;28;20207;-54
2021/04/11 10:15:16;;;;;;;8.70;7.80;;;10.80;99.90;;;;;;5016266;28;20971;-49
2021/04/11 10:18:03;;;;;;;10.83;9.73;;;10.80;99.90;;;;;;5025230;28;20214;-49
2021/04/11 10:20:37;;;;;;;11.87;10.30;;;10.70;99.90;;;;;;4996781;28;20231;-57
2021/04/11 10:23:08;;;;;;;11.90;10.63;;;10.50;99.90;;;;;;5020691;28;20207;-54
2021/04/11 10:25:38;;;;;;;11.63;10.07;;;10.40;99.90;;;;;;5018102;28;20730;-55
2021/04/11 10:28:14;;;;;;;9.87;8.87;;;10.30;99.90;;;;;;5010208;28;20936;-54
2021/04/11 10:30:42;;;;;;;9.97;8.63;;;10.30;99.90;;;;;;5024676;28;20223;-54
2021/04/11 10:33:16;;;;;;;8.87;7.97;;;10.40;99.90;;;;;;5012645;28;20188;-56
2021/04/11 10:35:47;;;;;;;8.27;7.47;;;10.40;99.90;;;;;;5012743;28;20204;-51
2021/04/11 10:38:18;;;;;;;8.23;6.80;;;10.60;99.90;;;;;;5018809;28;20228;-53
2021/04/11 10:41:13;;;;;;;6.87;6.27;;;10.70;99.90;;;;;;5019584;28;20224;-54
2021/04/11 10:43:51;;;;;;;7.87;7.17;;;10.70;99.90;;;;;;5014281;28;20215;-55
2021/04/11 10:46:22;;;;;;;43.50;20.53;;;10.70;99.90;;;;;;5026327;28;20283;-55
2021/04/11 10:49:21;;;;;;;6.37;5.87;;;10.70;99.90;;;;;;5021301;28;20196;-55
2021/04/11 10:52:09;;;;;;;5.93;5.43;;;10.60;99.90;;;;;;5010919;28;20306;-58
2021/04/11 10:55:05;;;;;;;5.67;5.17;;;10.60;99.90;;;;;;5023537;28;20227;-57
2021/04/11 10:58:08;;;;;;;5.20;4.80;;;10.50;99.90;;;;;;5021676;28;20334;-50
2021/04/11 11:00:41;;;;;;;5.67;5.10;;;10.40;99.90;;;;;;5006460;28;20216;-52
2021/04/11 11:03:56;;;;;;;5.53;5.13;;;10.30;99.90;;;;;;5023623;28;20595;-53
2021/04/11 11:06:45;;;;;;;5.10;4.67;;;10.10;99.90;;;;;;5017345;28;20208;-55
2021/04/11 11:09:22;;;;;;;5.40;5.00;;;10.00;99.90;;;;;;5007001;28;20219;-56
2021/04/11 11:12:07;;;;;;;6.63;6.03;;;9.80;99.90;;;;;;5022519;28;20848;-56
2021/04/11 11:14:57;;;;;;;7.83;7.13;;;9.70;99.90;;;;;;5005645;28;20192;-56
2021/04/11 11:17:41;;;;;;;6.43;5.87;;;9.60;99.90;;;;;;5018010;28;20676;-56
2021/04/11 11:20:17;;;;;;;7.87;7.10;;;9.40;99.90;;;;;;5021187;28;20242;-52
2021/04/11 11:23:08;;;;;;;9.07;8.17;;;9.40;99.90;;;;;;5008938;28;20211;-51
2021/04/11 11:25:55;;;;;;;8.47;7.67;;;9.30;99.90;;;;;;5018482;28;21038;-52
2021/04/11 11:28:59;;;;;;;7.90;6.37;;;9.10;99.90;;;;;;5020191;28;20207;-56
2021/04/11 11:31:37;;;;;;;8.27;7.47;;;8.90;99.90;;;;;;4981519;28;20224;-55
2021/04/11 11:34:18;;;;;;;8.00;7.20;;;8.70;99.90;;;;;;5023314;28;20838;-50
2021/04/11 11:36:50;;;;;;;7.83;7.03;;;8.60;99.90;;;;;;5020896;28;20200;-50
2021/04/11 11:39:28;;;;;;;8.50;7.30;;;8.60;99.90;;;;;;5009096;28;20226;-56
2021/04/11 11:42:01;;;;;;;7.37;6.53;;;8.60;99.90;;;;;;5022110;28;20203;-48
2021/04/11 11:44:32;;;;;;;6.30;5.63;;;8.50;99.90;;;;;;5015899;28;20287;-57
2021/04/11 11:47:11;;;;;;;6.23;5.60;;;8.50;99.90;;;;;;5018224;28;20305;-51
2021/04/11 11:49:43;;;;;;;6.37;5.60;;;8.40;99.90;;;;;;5018772;28;20423;-49
2021/04/11 11:52:17;;;;;;;6.10;5.57;;;8.30;99.90;;;;;;5023942;28;20218;-50
2021/04/11 11:54:47;;;;;;;9.93;8.93;;;8.30;99.90;;;;;;4995131;28;20911;-57
2021/04/11 11:57:26;;;;;;;10.10;9.10;;;8.10;99.90;;;;;;5014775;28;20257;-52
2021/04/11 12:00:05;;;;;;;8.77;7.97;;;7.90;99.90;;;;;;5012046;28;20219;-53
2021/04/11 12:02:49;;;;;;;6.77;5.87;;;7.90;99.90;;;;;;5013443;28;20212;-52
2021/04/11 12:05:19;;;;;;;6.80;5.33;;;7.90;99.90;;;;;;5016328;28;20745;-50
2021/04/11 12:07:55;;;;;;;6.30;5.60;;;7.80;99.90;;;;;;5016243;28;20196;-56
2021/04/11 12:10:30;;;;;;;8.23;6.70;;;7.80;99.90;;;;;;5005447;28;20219;-50
2021/04/11 12:13:09;;;;;;;7.63;6.83;;;7.70;99.90;;;;;;5013748;28;20210;-54
2021/04/11 12:15:42;;;;;;;7.43;6.73;;;7.70;99.90;;;;;;5014427;28;20246;-51
2021/04/11 12:18:13;;;;;;;7.17;6.60;;;7.70;99.90;;;;;;5010120;28;20214;-53
2021/04/11 12:20:45;;;;;;;5.90;5.40;;;7.60;99.90;;;;;;5020294;28;20307;-52
2021/04/11 12:23:22;;;;;;;6.07;5.30;;;7.50;99.90;;;;;;5017181;28;20306;-52
2021/04/11 12:25:50;;;;;;;7.63;6.40;;;7.40;99.90;;;;;;5010128;28;20208;-54
2021/04/11 12:28:23;;;;;;;8.30;7.23;;;7.40;99.90;;;;;;5023158;28;20688;-51
2021/04/11 12:30:50;;;;;;;6.40;5.80;;;7.40;99.90;;;;;;5013025;28;20250;-58
2021/04/11 12:33:24;;;;;;;7.37;6.67;;;7.40;99.90;;;;;;5012592;28;20208;-53
2021/04/11 12:36:07;;;;;;;6.70;5.53;;;7.40;99.90;;;;;;5012845;28;20207;-58
2021/04/11 12:38:44;;;;;;;4.50;3.90;;;7.30;99.90;;;;;;5026807;28;20773;-54
2021/04/11 12:41:21;;;;;;;4.47;3.90;;;7.30;99.90;;;;;;5009470;28;20203;-51
2021/04/11 12:43:59;;;;;;;3.33;3.03;;;7.20;99.90;;;;;;5027980;28;20217;-57
2021/04/11 12:46:35;;;;;;;3.63;2.60;;;7.20;99.90;;;;;;5018207;28;20207;-56
2021/04/11 12:49:08;;;;;;;2.70;2.50;;;7.20;99.90;;;;;;5009419;28;20219;-53
2021/04/11 12:51:40;;;;;;;2.70;2.50;;;7.20;99.90;;;;;;5026217;28;20249;-50
2021/04/11 12:54:13;;;;;;;2.90;2.70;;;7.20;99.90;;;;;;5018493;28;20287;-52
2021/04/11 12:56:45;;;;;;;3.20;2.40;;;7.30;99.90;;;;;;5014559;28;20706;-56
2021/04/11 12:59:19;;;;;;;3.83;2.20;;;7.40;99.90;;;;;;5027688;28;20448;-55
2021/04/11 13:01:47;;;;;;;2.77;2.53;;;7.50;99.90;;;;;;5018080;28;20242;-55
2021/04/11 13:04:22;;;;;;;3.97;2.70;;;7.50;99.90;;;;;;5015153;28;20594;-55
2021/04/11 13:06:54;;;;;;;2.73;2.50;;;7.50;99.90;;;;;;5020718;28;20285;-54
2021/04/11 13:09:34;;;;;;;3.00;2.70;;;7.40;99.90;;;;;;5016398;28;20689;-56
2021/04/11 13:12:12;;;;;;;3.70;3.40;;;7.30;99.90;;;;;;5003624;28;20283;-49
2021/04/11 13:14:45;;;;;;;3.57;3.27;;;7.30;99.90;;;;;;5020080;28;20216;-56
2021/04/11 13:17:19;;;;;;;4.70;3.50;;;7.20;99.90;;;;;;5016595;28;20195;-50
2021/04/11 13:19:55;;;;;;;4.07;3.10;;;7.00;99.90;;;;;;5017569;28;20306;-56
2021/04/11 13:22:26;;;;;;;3.80;2.83;;;6.90;99.90;;;;;;5025382;28;20254;-52
2021/04/11 13:24:59;;;;;;;3.43;3.23;;;6.70;99.90;;;;;;5021955;28;20724;-54
2021/04/11 13:27:32;;;;;;;3.10;2.80;;;6.60;99.90;;;;;;5012338;28;20240;-57
2021/04/11 13:30:07;;;;;;;4.97;2.13;;;6.60;99.90;;;;;;5015085;28;20862;-55
2021/04/11 13:32:44;;;;;;;2.77;1.90;;;6.60;99.90;;;;;;5019893;28;20195;-53
2021/04/11 13:35:20;;;;;;;2.10;2.00;;;6.50;99.90;;;;;;5019754;28;20446;-50